Time;durP1;ratioP1;P1;durP2;ratioP2;P2;SDS_P1;SDS_P2;PMS_P1;PMS_P2;Temp;Humidity;BMP_temperature;BMP_pressure;BME280_temperature;BME280_humidity;BME280_pressure;Samples;Min_cycle;Max_cycle;Signal;HPM_P1;HPM_P2
2022/04/18 00:01:00;;;;;;;6.95;3.95;;;;;;;6.28;54.16;99502.72;5169472;28;20056;-72
2022/04/18 00:03:55;;;;;;;10.82;4.20;;;;;;;6.45;54.10;99497.16;5183655;28;20119;-72
2022/04/18 00:06:45;;;;;;;6.63;3.72;;;;;;;6.33;54.01;99495.38;5168677;28;20046;-71
2022/04/18 00:09:36;;;;;;;6.93;3.80;;;;;;;6.20;54.52;99471.66;5169604;28;20053;-72
2022/04/18 00:12:28;;;;;;;7.38;3.97;;;;;;;6.41;53.76;99479.03;5183354;28;20122;-71
2022/04/18 00:15:18;;;;;;;9.32;4.65;;;;;;;6.57;52.90;99483.13;5182956;28;20100;-71
2022/04/18 00:18:10;;;;;;;9.30;4.43;;;;;;;6.11;53.46;99451.22;5183427;28;20060;-70
2022/04/18 00:21:00;;;;;;;7.68;4.15;;;;;;;6.11;53.85;99461.75;5168274;28;20545;-71
2022/04/18 00:23:50;;;;;;;5.32;4.03;;;;;;;6.30;53.36;99474.50;5183474;28;20742;-70
2022/04/18 00:26:40;;;;;;;6.13;4.25;;;;;;;6.10;53.47;99474.06;5182753;28;20128;-71
2022/04/18 00:29:31;;;;;;;6.88;4.18;;;;;;;5.99;54.29;99465.19;5162727;28;20570;-70
2022/04/18 00:32:21;;;;;;;6.03;3.80;;;;;;;5.98;53.89;99466.16;5177250;28;20160;-72
2022/04/18 00:35:11;;;;;;;6.20;4.45;;;;;;;5.96;54.28;99475.94;5153219;28;20049;-72
2022/04/18 00:38:01;;;;;;;7.78;4.35;;;;;;;5.98;54.77;99474.06;5182888;28;20057;-71
2022/04/18 00:40:51;;;;;;;6.25;3.92;;;;;;;6.02;55.17;99467.63;5168125;28;20187;-72
2022/04/18 00:43:42;;;;;;;9.10;4.28;;;;;;;5.68;54.57;99442.69;5168639;28;20096;-72
2022/04/18 00:46:32;;;;;;;9.13;4.85;;;;;;;5.81;55.60;99478.63;5168026;28;20053;-70
2022/04/18 00:49:22;;;;;;;8.65;4.70;;;;;;;5.76;56.22;99459.69;5168525;28;20050;-70
2022/04/18 00:52:12;;;;;;;15.43;5.18;;;;;;;5.83;56.53;99458.31;5182722;28;20073;-71
2022/04/18 00:55:02;;;;;;;7.75;4.68;;;;;;;5.96;55.84;99465.41;5182276;28;20093;-70
2022/04/18 00:57:55;;;;;;;7.93;5.13;;;;;;;5.72;57.19;99446.81;5182240;28;20133;-71
2022/04/18 01:00:46;;;;;;;9.80;5.03;;;;;;;5.71;56.80;99460.91;5182488;28;20104;-71
2022/04/18 01:03:36;;;;;;;8.10;4.97;;;;;;;5.50;57.46;99450.03;5154459;28;20108;-72
2022/04/18 01:06:26;;;;;;;9.02;5.60;;;;;;;5.61;57.30;99456.25;5181748;28;20064;-70
2022/04/18 01:09:17;;;;;;;11.68;5.47;;;;;;;5.55;58.63;99461.91;5167771;28;20046;-71
2022/04/18 01:12:08;;;;;;;11.75;5.80;;;;;;;5.47;59.60;99456.31;5161133;28;20515;-72
2022/04/18 01:15:17;;;;;;;13.23;5.40;;;;;;;5.34;59.46;99429.16;5181256;28;20492;-71
2022/04/18 01:18:25;;;;;;;10.95;5.65;;;;;;;5.48;59.36;99452.75;5161766;28;20062;-69
2022/04/18 01:21:30;;;;;;;9.85;5.55;;;;;;;5.31;59.50;99439.84;5152199;28;20056;-71
2022/04/18 01:31:02;;;;;;;7.72;5.07;;;;;;;5.32;60.42;99449.44;5166891;28;20058;-70
2022/04/18 01:33:53;;;;;;;10.68;5.90;;;;;;;5.39;59.43;99435.75;5168226;28;20045;-71
2022/04/18 01:36:45;;;;;;;18.58;5.47;;;;;;;5.32;59.16;99439.75;5160514;28;20094;-72
2022/04/18 01:39:38;;;;;;;12.00;5.50;;;;;;;5.10;58.51;99421.91;5152310;28;20132;-70
2022/04/18 01:42:29;;;;;;;12.30;5.82;;;;;;;5.09;59.48;99429.88;5167722;28;20052;-70
2022/04/18 01:45:19;;;;;;;9.55;5.43;;;;;;;5.00;59.81;99425.19;5177862;28;20072;-71
2022/04/18 01:48:22;;;;;;;11.90;5.30;;;;;;;5.17;59.56;99444.22;5155704;28;20143;-70
2022/04/18 01:51:12;;;;;;;9.82;5.25;;;;;;;4.96;59.58;99435.06;5181745;28;20073;-70
2022/04/18 01:54:03;;;;;;;12.82;5.47;;;;;;;4.93;60.09;99432.63;5166981;28;20088;-71
2022/04/18 01:56:54;;;;;;;9.63;5.68;;;;;;;4.94;60.57;99415.94;5160072;28;20060;-70
2022/04/18 01:59:45;;;;;;;8.75;5.07;;;;;;;5.15;59.61;99432.94;5164849;28;20065;-71
2022/04/18 02:02:35;;;;;;;9.25;5.43;;;;;;;4.91;59.60;99429.28;5166735;28;20104;-71
2022/04/18 02:05:26;;;;;;;10.27;5.43;;;;;;;4.88;59.36;99422.44;5153299;28;20699;-71
2022/04/18 02:08:16;;;;;;;9.63;4.97;;;;;;;4.88;58.79;99421.59;5181611;28;20447;-71
2022/04/18 02:11:07;;;;;;;9.63;5.30;;;;;;;4.86;60.11;99420.81;5153122;28;20057;-71
2022/04/18 02:14:00;;;;;;;10.13;5.45;;;;;;;4.71;60.86;99407.72;5166499;28;20045;-71
2022/04/18 02:16:52;;;;;;;8.18;5.57;;;;;;;4.72;60.45;99414.66;5153103;28;20142;-71
2022/04/18 02:19:44;;;;;;;9.73;6.07;;;;;;;4.78;60.99;99416.06;5156256;28;20069;-71
2022/04/18 02:22:34;;;;;;;11.07;5.95;;;;;;;4.76;61.01;99401.34;5185467;28;20061;-71
2022/04/18 02:25:25;;;;;;;10.60;5.63;;;;;;;4.73;61.24;99391.84;5169910;28;20116;-71
2022/04/18 02:28:19;;;;;;;17.20;6.43;;;;;;;4.82;61.01;99407.03;5161148;28;20123;-71
2022/04/18 02:31:17;;;;;;;8.30;5.57;;;;;;;4.75;60.73;99399.66;5170173;28;20522;-69
2022/04/18 02:34:07;;;;;;;12.15;4.97;;;;;;;4.67;58.78;99403.63;5169611;28;20068;-71
2022/04/18 02:36:58;;;;;;;11.13;5.43;;;;;;;4.58;59.39;99398.94;5156708;28;20179;-71
2022/04/18 02:39:54;;;;;;;9.63;5.50;;;;;;;4.53;60.44;99398.38;5151149;28;20088;-72
2022/04/18 02:42:47;;;;;;;9.88;5.28;;;;;;;4.47;60.86;99401.41;5153263;28;20053;-71
2022/04/18 02:45:38;;;;;;;7.15;4.70;;;;;;;4.33;59.64;99386.47;5166238;28;20523;-70
2022/04/18 02:48:43;;;;;;;10.93;5.28;;;;;;;4.32;60.49;99395.28;5158129;28;20042;-70
2022/04/18 02:51:36;;;;;;;8.88;5.30;;;;;;;4.53;61.06;99374.72;5170682;28;20076;-72
2022/04/18 02:54:31;;;;;;;12.07;6.10;;;;;;;4.66;61.13;99390.56;5170252;28;20179;-72
2022/04/18 02:57:22;;;;;;;11.80;6.20;;;;;;;4.76;60.92;99391.66;5185649;28;20068;-71
2022/04/18 03:00:12;;;;;;;8.93;5.50;;;;;;;4.65;60.42;99394.97;5171153;28;20128;-70
2022/04/18 03:03:05;;;;;;;8.47;4.60;;;;;;;4.45;60.53;99387.50;5166017;28;20066;-71
2022/04/18 03:05:58;;;;;;;10.25;4.82;;;;;;;4.41;61.01;99391.28;5169287;28;20112;-70
2022/04/18 03:08:49;;;;;;;7.63;5.07;;;;;;;4.44;60.87;99385.84;5164242;28;20046;-72
2022/04/18 03:11:39;;;;;;;12.52;5.80;;;;;;;4.41;60.29;99386.84;5177644;28;20192;-71
2022/04/18 03:14:30;;;;;;;8.27;4.40;;;;;;;4.46;59.23;99384.78;5168039;28;20048;-70
2022/04/18 03:17:22;;;;;;;5.65;3.92;;;;;;;4.53;57.63;99372.09;5163209;28;20061;-71
2022/04/18 03:20:12;;;;;;;5.60;3.97;;;;;;;4.67;57.43;99373.88;5151232;28;20057;-71
2022/04/18 03:23:02;;;;;;;9.73;5.03;;;;;;;4.57;57.82;99371.00;5170106;28;20496;-71
2022/04/18 03:26:11;;;;;;;11.18;5.38;;;;;;;4.72;58.46;99375.25;5162942;28;20049;-71
2022/04/18 03:29:08;;;;;;;12.25;5.53;;;;;;;4.66;57.91;99375.66;5163069;28;20074;-71
2022/04/18 03:31:59;;;;;;;7.25;4.57;;;;;;;4.80;58.51;99372.16;5164465;28;20678;-71
2022/04/18 03:34:53;;;;;;;8.63;5.20;;;;;;;4.74;58.37;99377.81;5168014;28;20104;-71
2022/04/18 03:40:52;;;;;;;7.93;4.40;;;;;;;4.46;57.42;99368.19;5169640;28;20123;-71
2022/04/18 03:43:42;;;;;;;7.72;4.80;;;;;;;4.59;59.07;99374.34;5169298;28;20104;-71
2022/04/18 03:46:33;;;;;;;7.65;4.90;;;;;;;4.60;58.33;99365.56;5178844;28;20064;-71
2022/04/18 03:49:23;;;;;;;11.13;5.40;;;;;;;4.47;58.99;99367.25;5155992;28;20052;-70
2022/04/18 03:52:17;;;;;;;6.82;4.75;;;;;;;4.24;59.11;99351.16;5149705;28;20065;-71
2022/04/18 03:55:08;;;;;;;8.60;4.45;;;;;;;4.21;59.07;99353.13;5162781;28;20070;-72
2022/04/18 03:57:59;;;;;;;10.95;5.30;;;;;;;4.09;60.00;99343.38;5183218;28;20136;-71
2022/04/18 04:00:49;;;;;;;9.35;5.15;;;;;;;4.32;59.76;99355.91;5155751;28;20060;-70
2022/04/18 04:03:40;;;;;;;9.73;5.03;;;;;;;4.12;59.66;99354.53;5155196;28;20056;-70
2022/04/18 04:06:31;;;;;;;7.90;5.05;;;;;;;4.11;59.50;99346.75;5183170;28;20046;-69
2022/04/18 04:09:21;;;;;;;7.95;5.25;;;;;;;4.18;60.03;99356.78;5169145;28;20050;-71
2022/04/18 04:12:11;;;;;;;10.93;5.13;;;;;;;4.10;60.03;99366.88;5183263;28;20119;-70
2022/04/18 04:15:12;;;;;;;8.32;5.13;;;;;;;3.95;60.31;99358.19;5168620;28;20105;-72
2022/04/18 04:18:11;;;;;;;9.25;4.82;;;;;;;3.87;59.67;99372.69;5162718;28;20515;-70
2022/04/18 04:21:01;;;;;;;7.75;4.72;;;;;;;3.78;60.34;99350.50;5168665;28;20100;-69
2022/04/18 04:23:51;;;;;;;11.57;5.70;;;;;;;3.88;62.26;99366.53;5166712;28;20610;-70
2022/04/18 04:26:53;;;;;;;8.93;5.28;;;;;;;3.88;62.81;99369.16;5168703;28;20042;-72
2022/04/18 04:29:46;;;;;;;8.43;5.53;;;;;;;3.90;62.40;99359.38;5162816;28;20141;-69
2022/04/18 04:32:44;;;;;;;9.85;5.10;;;;;;;4.02;61.76;99331.56;5167572;28;20057;-69
2022/04/18 04:35:34;;;;;;;9.13;5.22;;;;;;;4.46;59.70;99348.00;5154795;28;20052;-69
2022/04/18 04:38:31;;;;;;;10.68;5.75;;;;;;;4.08;60.61;99332.03;5163988;28;20568;-71
2022/04/18 04:41:29;;;;;;;7.75;4.93;;;;;;;3.99;60.27;99337.84;5154969;28;20073;-72
2022/04/18 04:44:22;;;;;;;10.45;5.18;;;;;;;4.01;60.46;99341.22;5161975;28;20049;-71
2022/04/18 04:47:19;;;;;;;6.55;4.97;;;;;;;4.35;58.65;99360.97;5168179;28;20180;-72
2022/04/18 04:50:10;;;;;;;9.55;6.25;;;;;;;4.35;59.20;99352.28;5168539;28;20112;-69
2022/04/18 04:53:13;;;;;;;8.93;4.23;;;;;;;4.32;59.12;99352.47;5168688;28;20054;-69
2022/04/18 04:56:04;;;;;;;9.25;5.35;;;;;;;4.48;59.11;99351.41;5159586;28;20057;-72
2022/04/18 04:58:58;;;;;;;11.25;5.93;;;;;;;4.47;58.94;99356.75;5167902;28;20188;-70
2022/04/18 05:01:50;;;;;;;11.82;5.88;;;;;;;4.28;59.35;99338.69;5167384;28;20060;-70
2022/04/18 05:04:44;;;;;;;6.90;5.00;;;;;;;4.38;60.23;99354.69;5165751;28;20061;-72
2022/04/18 05:07:35;;;;;;;10.02;5.55;;;;;;;4.74;60.09;99361.22;5167920;28;20061;-70
2022/04/18 05:10:38;;;;;;;7.63;5.13;;;;;;;4.55;59.84;99351.00;5167367;28;20058;-71
2022/04/18 05:13:38;;;;;;;8.82;5.57;;;;;;;4.48;59.88;99345.31;5168472;28;20076;-69
2022/04/18 05:16:28;;;;;;;7.10;5.30;;;;;;;4.36;60.00;99356.56;5155866;28;20061;-69
2022/04/18 05:19:41;;;;;;;8.98;5.47;;;;;;;4.39;59.95;99353.75;5170490;28;20581;-70
2022/04/18 05:22:46;;;;;;;12.60;6.00;;;;;;;4.45;60.35;99356.84;5167719;28;20061;-69
2022/04/18 05:25:39;;;;;;;14.88;6.38;;;;;;;4.31;59.40;99348.16;5166948;28;20690;-69
2022/04/18 05:28:29;;;;;;;9.77;5.70;;;;;;;4.39;59.00;99354.59;5167709;28;20072;-70
2022/04/18 05:31:26;;;;;;;14.55;6.05;;;;;;;4.41;59.66;99365.00;5167219;28;20143;-69
2022/04/18 05:34:18;;;;;;;12.73;6.05;;;;;;;4.44;59.25;99349.06;5166132;28;20111;-71
2022/04/18 05:37:13;;;;;;;10.35;5.22;;;;;;;4.55;60.01;99364.97;5167113;28;20419;-70
2022/04/18 05:40:24;;;;;;;8.35;5.20;;;;;;;4.58;59.31;99372.66;5152249;28;20223;-70
2022/04/18 05:43:17;;;;;;;10.52;5.57;;;;;;;4.69;59.11;99362.31;5167367;28;20062;-71
2022/04/18 05:46:07;;;;;;;15.00;6.30;;;;;;;4.86;59.09;99371.75;5153805;28;20128;-70
2022/04/18 05:48:57;;;;;;;13.18;6.40;;;;;;;5.02;59.08;99371.59;5175115;28;20050;-69
2022/04/18 05:51:48;;;;;;;10.88;6.25;;;;;;;5.10;58.66;99364.09;5147378;28;20061;-69
2022/04/18 05:54:38;;;;;;;9.75;5.57;;;;;;;5.26;59.18;99365.69;5164448;28;20061;-70
2022/04/18 05:57:29;;;;;;;12.77;5.20;;;;;;;5.84;56.51;99362.63;5167634;28;20060;-70
2022/04/18 06:00:21;;;;;;;13.18;4.85;;;;;;;6.80;52.95;99355.03;5162423;28;20054;-71
2022/04/18 06:03:18;;;;;;;17.10;7.32;;;;;;;6.76;52.34;99361.47;5169245;28;20129;-70
2022/04/18 06:06:08;;;;;;;8.45;4.88;;;;;;;6.78;52.48;99362.19;5165490;28;20072;-71
2022/04/18 06:08:59;;;;;;;7.65;4.38;;;;;;;6.82;52.46;99347.00;5149007;28;20057;-69
2022/04/18 06:11:51;;;;;;;7.60;4.20;;;;;;;7.06;51.28;99358.41;5160256;28;20068;-71
2022/04/18 06:14:44;;;;;;;6.47;4.40;;;;;;;7.11;51.40;99359.84;5162466;28;20072;-71
2022/04/18 06:17:34;;;;;;;10.52;4.22;;;;;;;7.03;51.84;99355.97;5166613;28;20187;-70
2022/04/18 06:20:26;;;;;;;7.90;4.63;;;;;;;7.32;51.50;99360.03;5153684;28;20419;-71
2022/04/18 06:23:17;;;;;;;7.78;4.30;;;;;;;7.22;51.22;99342.28;5160939;28;20515;-69
2022/04/18 06:26:10;;;;;;;9.10;4.47;;;;;;;7.80;49.40;99354.69;5166129;28;20076;-71
2022/04/18 06:29:01;;;;;;;9.75;4.78;;;;;;;7.87;49.40;99358.53;5166886;28;20523;-70
2022/04/18 06:31:53;;;;;;;7.85;4.80;;;;;;;7.85;50.57;99361.28;5163745;28;20046;-70
2022/04/18 06:34:46;;;;;;;7.35;4.38;;;;;;;7.81;50.51;99353.72;5159942;28;20528;-71
2022/04/18 06:37:41;;;;;;;7.57;4.57;;;;;;;7.77;51.47;99355.75;5166413;28;20109;-70
2022/04/18 06:41:08;;;;;;;6.72;4.50;;;;;;;7.80;51.61;99344.94;5181683;28;20111;-72
2022/04/18 06:43:58;;;;;;;10.75;5.18;;;;;;;7.82;51.87;99347.50;5167294;28;20057;-69
2022/04/18 06:46:53;;;;;;;11.05;5.28;;;;;;;7.99;51.31;99345.22;5157841;28;20482;-70
2022/04/18 06:50:11;;;;;;;9.32;5.00;;;;;;;8.04;50.59;99349.28;5174390;28;20045;-69
2022/04/18 06:53:20;;;;;;;9.15;5.00;;;;;;;8.20;50.43;99349.78;5178991;28;20358;-69
2022/04/18 06:59:47;;;;;;;11.02;5.28;;;;;;;8.46;50.50;99331.91;5160224;28;20463;-68
2022/04/18 07:02:46;;;;;;;8.23;4.60;;;;;;;8.20;50.40;99347.16;5157278;28;20456;-67
2022/04/18 07:05:40;;;;;;;7.85;4.05;;;;;;;8.42;50.79;99347.19;5153999;28;20076;-67
2022/04/18 07:08:31;;;;;;;7.03;4.20;;;;;;;8.64;48.50;99334.88;5177246;28;20050;-66
2022/04/18 07:11:37;;;;;;;7.60;3.90;;;;;;;8.37;49.50;99344.00;5167020;28;20155;-68
2022/04/18 07:14:28;;;;;;;9.07;4.35;;;;;;;8.69;48.30;99341.47;5168125;28;20065;-69
2022/04/18 07:17:21;;;;;;;6.53;4.40;;;;;;;9.27;45.88;99343.84;5169023;28;20054;-68
2022/04/18 07:20:12;;;;;;;9.10;4.35;;;;;;;9.09;46.51;99345.34;5165726;28;20132;-69
2022/04/18 07:23:03;;;;;;;10.50;4.00;;;;;;;9.41;45.04;99335.59;5165430;28;20124;-68
2022/04/18 07:26:05;;;;;;;6.60;3.63;;;;;;;10.76;44.74;99339.91;5165956;28;20565;-68
2022/04/18 07:28:58;;;;;;;7.13;4.80;;;;;;;10.35;44.71;99343.53;5151369;28;20057;-68
2022/04/18 07:31:49;;;;;;;7.38;4.18;;;;;;;10.77;44.62;99333.59;5182760;28;20164;-68
2022/04/18 07:34:40;;;;;;;8.00;4.45;;;;;;;11.47;41.84;99344.13;5175137;28;20056;-67
2022/04/18 07:38:48;;;;;;;7.35;4.15;;;;;;;12.75;42.45;99341.78;5155673;28;20053;-68
2022/04/18 07:40:55;;;;;;;8.50;3.85;;;;;;;12.68;38.99;99332.69;5165964;28;20046;-67
2022/04/18 07:43:49;;;;;;;;;;;;;;;14.44;37.09;99344.31;5177453;28;20057;-68
2022/04/18 07:46:40;;;;;;;7.53;4.20;;;;;;;15.08;34.29;99325.16;5166326;28;19995;-67
2022/04/18 07:49:36;;;;;;;8.73;3.75;;;;;;;16.11;36.22;99336.19;5151105;28;20556;-68
2022/04/18 07:52:28;;;;;;;6.55;4.07;;;;;;;16.33;32.68;99343.47;5162340;28;20465;-68
2022/04/18 07:55:23;;;;;;;6.85;4.10;;;;;;;16.53;32.66;99341.25;5164518;28;20054;-68
2022/04/18 07:58:13;;;;;;;7.55;3.92;;;;;;;17.24;31.93;99339.34;5164017;28;20054;-65
2022/04/18 08:01:04;;;;;;;7.28;4.10;;;;;;;17.09;33.45;99300.97;5161009;28;20057;-66
2022/04/18 08:03:56;;;;;;;9.13;4.20;;;;;;;17.47;33.22;99339.34;5161497;28;20100;-68
2022/04/18 08:06:47;;;;;;;8.73;4.32;;;;;;;16.21;32.45;99339.50;5165153;28;20113;-68
2022/04/18 08:09:41;;;;;;;8.00;3.75;;;;;;;17.21;32.31;99337.03;5164672;28;20048;-66
2022/04/18 08:12:34;;;;;;;8.32;3.80;;;;;;;16.81;32.31;99340.78;5167114;28;20554;-66
2022/04/18 08:15:43;;;;;;;7.25;3.85;;;;;;;18.34;32.16;99333.50;5179846;28;20046;-66
2022/04/18 08:18:56;;;;;;;6.25;3.90;;;;;;;19.49;29.83;99341.69;5165057;28;20639;-66
2022/04/18 08:21:48;;;;;;;5.78;3.42;;;;;;;19.25;30.00;99328.63;5173456;28;20136;-67
2022/04/18 08:24:38;;;;;;;7.00;4.18;;;;;;;18.96;29.04;99334.94;5153680;28;20500;-66
2022/04/18 08:27:54;;;;;;;5.43;4.00;;;;;;;17.90;30.81;99322.75;5170211;28;20053;-67
2022/04/18 08:30:53;;;;;;;7.93;4.32;;;;;;;19.29;31.24;99334.47;5154669;28;20451;-67
2022/04/18 08:34:07;;;;;;;10.52;4.57;;;;;;;18.65;31.95;99332.47;5164499;28;20056;-66
2022/04/18 08:36:58;;;;;;;8.60;4.03;;;;;;;19.74;27.35;99333.25;5162654;28;20065;-66
2022/04/18 08:40:03;;;;;;;;;;;;;;;20.44;30.14;99333.31;5165970;28;20751;-67
2022/04/18 08:42:55;;;;;;;6.82;3.65;;;;;;;20.57;29.50;99333.41;5150796;28;19933;-67
2022/04/18 08:45:47;;;;;;;8.27;3.95;;;;;;;20.94;27.91;99325.88;5164614;28;20050;-67
2022/04/18 08:55:03;;;;;;;6.20;3.80;;;;;;;18.33;31.43;99309.53;5169751;28;20054;-68
2022/04/18 08:57:53;;;;;;;6.38;3.88;;;;;;;19.44;27.92;99317.25;5161728;28;20058;-68
2022/04/18 09:00:44;;;;;;;6.50;3.67;;;;;;;19.83;31.05;99294.38;5168842;28;20084;-69
2022/04/18 09:04:01;;;;;;;6.22;3.67;;;;;;;17.38;31.72;99310.94;5172910;28;20551;-70
2022/04/18 09:07:10;;;;;;;5.68;3.60;;;;;;;18.82;30.78;99311.63;5152818;28;20052;-70
2022/04/18 09:10:03;;;;;;;8.07;4.00;;;;;;;18.62;29.26;99295.25;5166150;28;20441;-70
2022/04/18 09:13:03;;;;;;;7.32;3.67;;;;;;;19.85;28.16;99302.28;5167530;28;20459;-69
2022/04/18 09:16:16;;;;;;;5.90;3.65;;;;;;;20.25;27.64;99297.16;5181101;28;20042;-67
2022/04/18 09:19:10;;;;;;;4.45;3.28;;;;;;;20.48;27.76;99296.84;5163315;28;20054;-67
2022/04/18 09:22:05;;;;;;;4.63;3.17;;;;;;;20.34;27.79;99301.34;5179573;28;20789;-69
2022/04/18 09:25:01;;;;;;;6.90;3.63;;;;;;;20.59;26.64;99293.59;5161035;28;20049;-69
2022/04/18 09:27:56;;;;;;;5.15;3.30;;;;;;;21.05;28.43;99269.47;5168118;28;20096;-69
2022/04/18 09:31:08;;;;;;;5.25;3.55;;;;;;;21.61;27.50;99272.88;5180525;28;20056;-70
2022/04/18 09:34:00;;;;;;;6.53;3.50;;;;;;;21.61;26.49;99270.19;5160358;28;20554;-70
2022/04/18 09:37:12;;;;;;;6.37;3.03;;;;;;;22.04;26.73;99276.75;5160134;28;20511;-68
2022/04/18 09:40:03;;;;;;;5.07;3.08;;;;;;;21.54;25.42;99265.59;5162073;28;20295;-68
2022/04/18 09:42:57;;;;;;;6.63;3.45;;;;;;;21.52;27.68;99275.78;5166749;28;20185;-68
2022/04/18 09:45:53;;;;;;;5.20;3.30;;;;;;;21.86;25.20;99278.47;5165810;28;20060;-69
2022/04/18 09:48:48;;;;;;;9.48;3.80;;;;;;;22.36;25.49;99249.06;5164361;28;20065;-69
2022/04/18 09:51:42;;;;;;;5.78;3.40;;;;;;;22.25;25.65;99255.94;5145552;28;20073;-69
2022/04/18 09:54:57;;;;;;;5.00;2.95;;;;;;;22.11;26.66;99254.31;5162218;28;20089;-68
2022/04/18 09:57:47;;;;;;;6.90;3.63;;;;;;;21.33;25.26;99255.84;5181347;28;20062;-68
2022/04/18 10:00:38;;;;;;;4.78;3.00;;;;;;;20.78;25.36;99251.59;5152674;28;20090;-67
2022/04/18 10:03:28;;;;;;;5.90;3.00;;;;;;;20.96;26.53;99242.91;5178281;28;20061;-67
2022/04/18 10:06:20;;;;;;;5.35;2.90;;;;;;;21.47;25.74;99251.28;5186255;28;20566;-67
2022/04/18 10:09:15;;;;;;;8.73;3.50;;;;;;;20.81;25.38;99265.50;5182300;28;20060;-68
2022/04/18 10:12:11;;;;;;;5.75;3.38;;;;;;;19.90;25.91;99252.25;5178343;28;20058;-67
2022/04/18 10:15:02;;;;;;;5.20;3.40;;;;;;;21.67;27.66;99255.84;5176340;28;20058;-68
2022/04/18 10:17:52;;;;;;;6.65;2.92;;;;;;;21.92;26.49;99245.22;5161052;28;20050;-68
2022/04/18 10:21:06;;;;;;;5.50;3.10;;;;;;;21.23;23.47;99238.41;5179597;28;20053;-69
2022/04/18 10:24:41;;;;;;;6.43;2.87;;;;;;;20.94;26.53;99237.75;5157789;28;20058;-69
2022/04/18 10:27:43;;;;;;;5.13;3.00;;;;;;;21.41;25.08;99227.03;5177826;28;20526;-67
2022/04/18 10:30:37;;;;;;;3.95;2.72;;;;;;;20.12;27.80;99226.03;5192405;22;20053;-68
2022/04/18 10:33:28;;;;;;;6.22;3.03;;;;;;;20.35;26.36;99230.28;5158229;28;20046;-68
2022/04/18 10:36:31;;;;;;;5.53;2.97;;;;;;;19.60;26.24;99232.75;5143490;28;20062;-68
2022/04/18 10:39:21;;;;;;;3.60;2.40;;;;;;;19.97;26.98;99224.50;5146896;28;20192;-68
2022/04/18 10:42:18;;;;;;;8.10;3.30;;;;;;;20.76;27.49;99224.00;5140767;28;20082;-70
2022/04/18 10:45:11;;;;;;;6.10;3.15;;;;;;;20.50;26.20;99225.59;5133173;28;20125;-69
2022/04/18 10:48:05;;;;;;;7.10;3.33;;;;;;;19.46;24.99;99207.59;5141582;28;20067;-69
2022/04/18 10:50:55;;;;;;;6.97;3.00;;;;;;;20.07;28.68;99192.69;5141532;28;20102;-69
2022/04/18 10:53:46;;;;;;;5.22;3.17;;;;;;;20.62;27.75;99188.97;5141559;28;20066;-69
2022/04/18 10:56:55;;;;;;;7.32;3.33;;;;;;;19.55;26.29;99211.00;5128353;28;20081;-69
2022/04/18 10:59:46;;;;;;;4.75;3.10;;;;;;;19.47;27.92;99206.59;5134620;28;20422;-70
2022/04/18 11:02:42;;;;;;;5.93;3.40;;;;;;;19.71;25.37;99205.34;5129378;28;20046;-71
2022/04/18 11:05:39;;;;;;;4.88;3.00;;;;;;;19.54;28.39;99198.59;5122833;28;20441;-72
2022/04/18 11:08:29;;;;;;;4.55;3.00;;;;;;;19.58;27.25;99196.31;5142038;28;20189;-71
2022/04/18 11:11:19;;;;;;;5.95;3.28;;;;;;;20.04;26.76;99180.47;5141842;28;20082;-70
2022/04/18 11:14:30;;;;;;;3.75;2.95;;;;;;;20.26;27.66;99191.09;5128133;28;20061;-70
2022/04/18 11:17:29;;;;;;;4.60;2.75;;;;;;;20.28;27.39;99194.44;5138955;28;20713;-69
2022/04/18 11:20:31;;;;;;;5.97;2.92;;;;;;;20.54;25.34;99177.56;5139276;28;20055;-70
2022/04/18 11:23:23;;;;;;;5.93;2.92;;;;;;;20.54;26.36;99156.84;5116179;28;20516;-70
2022/04/18 11:26:13;;;;;;;4.47;2.80;;;;;;;19.80;26.05;99181.81;5131790;28;20066;-70
2022/04/18 11:29:05;;;;;;;7.63;4.05;;;;;;;19.64;27.79;99172.19;5137523;28;20059;-69
2022/04/18 11:31:55;;;;;;;5.07;2.83;;;;;;;19.75;28.99;99172.66;5133026;28;20066;-70
2022/04/18 11:34:48;;;;;;;5.15;3.22;;;;;;;19.63;25.97;99164.28;5121229;28;20063;-69
2022/04/18 11:37:43;;;;;;;4.53;2.70;;;;;;;20.01;29.91;99170.09;5118297;28;20043;-69
2022/04/18 11:40:44;;;;;;;4.80;3.10;;;;;;;19.43;28.08;99158.78;5123952;28;20062;-71
2022/04/18 11:43:35;;;;;;;6.88;3.00;;;;;;;19.55;27.26;99167.13;5120067;28;20134;-70
2022/04/18 11:46:29;;;;;;;4.93;2.92;;;;;;;19.96;28.88;99156.41;5116104;28;20516;-70
2022/04/18 11:49:26;;;;;;;5.95;3.50;;;;;;;20.08;27.68;99156.66;5130393;28;20055;-71
2022/04/18 11:52:21;;;;;;;4.47;2.90;;;;;;;20.54;28.99;99156.00;5120269;28;20118;-69
2022/04/18 11:55:15;;;;;;;5.38;2.95;;;;;;;19.45;29.73;99149.47;5116084;28;20058;-69
2022/04/18 11:58:07;;;;;;;;;;;;;;;19.64;27.75;99156.06;5132347;28;20051;-71
2022/04/18 12:07:19;;;;;;;3.17;2.33;;;;;;;18.98;29.99;99134.06;5139941;28;20197;-70
2022/04/18 12:10:27;;;;;;;4.68;2.50;;;;;;;19.92;28.87;99120.16;5117102;28;20517;-71
2022/04/18 12:13:19;;;;;;;8.20;2.78;;;;;;;19.41;26.92;99120.50;5136429;28;20170;-70
2022/04/18 12:16:10;;;;;;;4.65;2.78;;;;;;;17.29;29.57;99129.81;5134295;28;20133;-71
2022/04/18 12:19:00;;;;;;;4.18;2.60;;;;;;;18.84;28.69;99121.53;5107990;28;20405;-71
2022/04/18 12:21:54;;;;;;;4.85;2.63;;;;;;;18.89;29.86;99105.66;5134813;28;20530;-73
2022/04/18 12:24:44;;;;;;;3.60;2.35;;;;;;;19.33;28.42;99099.97;5140379;28;20125;-72
2022/04/18 12:27:38;;;;;;;5.10;2.60;;;;;;;19.13;27.24;99088.25;5133240;28;20185;-71
2022/04/18 12:30:28;;;;;;;3.25;2.28;;;;;;;19.43;25.71;99088.84;5129090;28;20069;-71
2022/04/18 12:33:22;;;;;;;6.35;2.40;;;;;;;18.51;27.19;99089.81;5125479;28;20051;-69
2022/04/18 12:36:22;;;;;;;4.35;2.28;;;;;;;19.05;27.36;99088.44;5113659;28;20054;-68
2022/04/18 12:39:21;;;;;;;5.20;2.55;;;;;;;19.08;28.23;99099.63;5143862;28;20145;-68
2022/04/18 12:42:13;;;;;;;5.97;2.58;;;;;;;18.83;28.14;99093.84;5139132;28;20059;-68
2022/04/18 12:45:03;;;;;;;4.28;2.50;;;;;;;18.46;28.05;99084.19;5128457;28;20125;-69
2022/04/18 12:47:53;;;;;;;2.85;2.30;;;;;;;19.20;27.28;99090.00;5142662;28;20054;-71
2022/04/18 12:50:44;;;;;;;3.88;2.20;;;;;;;19.34;27.01;99084.69;5142718;28;20050;-70
2022/04/18 12:53:51;;;;;;;3.50;2.10;;;;;;;19.27;27.17;99062.28;5126172;28;20058;-73
2022/04/18 12:56:46;;;;;;;2.33;1.88;;;;;;;19.07;27.25;99057.63;5138228;28;20051;-71
2022/04/18 12:59:41;;;;;;;;;;;;;;;19.29;27.38;99073.69;5136355;28;20073;-69
2022/04/18 13:02:31;;;;;;;3.95;2.00;;;;;;;19.18;27.66;99065.16;5127489;28;19953;-69
2022/04/18 13:05:30;;;;;;;2.45;1.90;;;;;;;18.71;25.84;99055.91;5132453;28;20138;-68
2022/04/18 13:08:20;;;;;;;4.72;2.10;;;;;;;16.68;28.61;99057.53;5125636;28;20540;-70
2022/04/18 13:11:11;;;;;;;2.88;1.83;;;;;;;18.06;28.56;99065.00;5132619;28;20735;-70
2022/04/18 13:14:03;;;;;;;3.00;2.00;;;;;;;18.29;27.07;99049.56;5133040;28;20070;-68
2022/04/18 13:17:10;;;;;;;5.55;2.20;;;;;;;17.76;26.59;99053.50;5120650;28;20054;-68
2022/04/18 13:20:01;;;;;;;5.25;2.30;;;;;;;18.41;27.74;99040.97;5138250;28;20053;-69
2022/04/18 13:22:52;;;;;;;4.00;1.85;;;;;;;18.78;25.73;99047.94;5129173;28;20825;-68
2022/04/18 13:25:44;;;;;;;3.17;1.90;;;;;;;18.86;26.44;99014.72;5137165;28;20141;-70
2022/04/18 13:28:37;;;;;;;6.50;2.10;;;;;;;19.21;26.54;99037.88;5139975;28;20416;-68
2022/04/18 13:31:29;;;;;;;3.40;1.83;;;;;;;19.29;26.98;99028.81;5126000;28;20416;-69
2022/04/18 13:34:19;;;;;;;2.63;1.80;;;;;;;19.46;25.96;99013.16;5140746;28;20053;-70
2022/04/18 13:37:11;;;;;;;4.50;2.00;;;;;;;19.27;26.06;99024.66;5122250;28;20525;-68
2022/04/18 13:40:01;;;;;;;2.58;1.65;;;;;;;19.25;25.75;99012.25;5126317;28;20129;-68
2022/04/18 13:42:51;;;;;;;3.67;2.30;;;;;;;19.38;27.13;99008.81;5141999;28;20058;-69
2022/04/18 13:45:42;;;;;;;3.40;2.20;;;;;;;18.47;25.93;99008.81;5140772;28;20093;-70
2022/04/18 13:48:34;;;;;;;4.35;2.08;;;;;;;19.02;25.82;99009.84;5126157;28;20136;-69
2022/04/18 13:51:26;;;;;;;3.17;1.92;;;;;;;19.35;25.85;99011.06;5124160;28;20126;-69
2022/04/18 13:54:16;;;;;;;3.95;1.98;;;;;;;18.62;26.38;99006.03;5130131;28;20088;-69
2022/04/18 13:57:07;;;;;;;2.70;1.90;;;;;;;18.18;27.02;98988.34;5133522;28;20122;-69
2022/04/18 13:59:57;;;;;;;2.63;1.63;;;;;;;18.61;28.71;98968.63;5128458;28;20506;-69
2022/04/18 14:02:47;;;;;;;4.47;1.92;;;;;;;19.15;26.33;98994.84;5129614;28;20061;-70
2022/04/18 14:05:39;;;;;;;3.22;1.98;;;;;;;19.24;26.44;98993.66;5122921;28;20184;-70
2022/04/18 14:08:34;;;;;;;3.70;2.33;;;;;;;18.93;26.23;98988.72;5121641;28;20059;-71
2022/04/18 14:11:24;;;;;;;4.55;2.67;;;;;;;18.50;27.07;98984.25;5139051;28;20047;-70